createdAt,value
2023-08-22T00:00:45.170Z,97883.72
2023-08-22T00:03:14.790Z,97881.72
2023-08-22T00:05:42.846Z,97885.13
2023-08-22T00:08:10.903Z,97875.03
2023-08-22T00:10:38.893Z,97881.59
2023-08-22T00:13:07.434Z,97872.34
2023-08-22T00:15:35.775Z,97875.94
2023-08-22T00:18:06.094Z,97875.75
2023-08-22T00:20:34.202Z,97875.75
2023-08-22T00:23:02.172Z,97877.09
2023-08-22T00:25:30.140Z,97883.06
2023-08-22T00:27:58.497Z,97868.47
2023-08-22T00:30:26.528Z,97872.72
2023-08-22T00:32:54.562Z,97869.28
2023-08-22T00:35:25.944Z,97871.09
2023-08-22T00:37:53.978Z,97879.28
2023-08-22T00:40:22.049Z,97872.44
2023-08-22T00:42:51.393Z,97877.28
2023-08-22T00:45:19.547Z,97862.88
2023-08-22T00:47:47.701Z,97867.75
2023-08-22T00:50:15.762Z,97867.75
2023-08-22T00:52:45.186Z,97872.53
2023-08-22T00:55:14.518Z,97868.81
2023-08-22T00:57:43.143Z,97866.91
2023-08-22T01:00:12.077Z,97877.03
2023-08-22T01:02:41.156Z,97860.84
2023-08-22T01:05:12.171Z,97865.00
2023-08-22T01:07:51.628Z,97865.34
2023-08-22T01:10:26.734Z,97855.59
2023-08-22T01:13:03.598Z,97857.25
2023-08-22T01:15:37.088Z,97855.59
2023-08-22T01:18:08.933Z,97862.84
2023-08-22T01:20:37.052Z,97856.34
2023-08-22T01:23:06.460Z,97861.91
2023-08-22T01:25:35.210Z,97862.28
2023-08-22T01:28:16.453Z,97861.81
2023-08-22T01:30:57.961Z,97869.19
2023-08-22T01:33:33.268Z,97866.78
2023-08-22T01:36:01.547Z,97862.69
2023-08-22T01:38:33.033Z,97859.47
2023-08-22T01:41:01.992Z,97853.25
2023-08-22T01:43:30.003Z,97853.69
2023-08-22T01:45:57.999Z,97846.47
2023-08-22T01:48:26.040Z,97848.13
2023-08-22T01:50:54.067Z,97844.16
2023-08-22T01:53:22.111Z,97849.84
2023-08-22T01:55:51.484Z,97849.47
2023-08-22T01:58:19.500Z,97843.88
2023-08-22T02:00:47.507Z,97845.50
2023-08-22T02:03:15.728Z,97843.56
2023-08-22T02:05:43.887Z,97843.56
2023-08-22T02:08:11.888Z,97838.22
2023-08-22T02:10:39.933Z,97840.81
2023-08-22T02:13:09.262Z,97843.03
2023-08-22T02:15:38.361Z,97843.84
2023-08-22T02:18:07.131Z,97838.75
2023-08-22T02:20:35.235Z,97845.31
2023-08-22T02:23:03.690Z,97844.25
2023-08-22T02:25:33.898Z,97847.94
2023-08-22T02:28:03.060Z,97848.84
2023-08-22T02:30:32.538Z,97846.69
2023-08-22T02:33:00.667Z,97852.09
2023-08-22T02:35:28.736Z,97852.63
2023-08-22T02:37:56.765Z,97854.34
2023-08-22T02:40:24.941Z,97848.84
2023-08-22T02:42:53.588Z,97848.91
2023-08-22T02:45:21.790Z,97840.69
2023-08-22T02:47:51.246Z,97845.84
2023-08-22T02:50:19.460Z,97845.47
2023-08-22T02:52:47.456Z,97846.75
2023-08-22T02:55:15.636Z,97840.19
2023-08-22T02:57:43.836Z,97840.19
2023-08-22T03:00:14.269Z,97843.16
2023-08-22T03:02:42.873Z,97848.28
2023-08-22T03:05:14.104Z,97848.16
2023-08-22T03:07:42.645Z,97833.19
2023-08-22T03:10:11.651Z,97841.91
2023-08-22T03:12:39.682Z,97837.59
2023-08-22T03:15:09.254Z,97837.91
2023-08-22T03:17:37.304Z,97837.91
2023-08-22T03:20:07.077Z,97836.09
2023-08-22T03:22:36.430Z,97833.03
2023-08-22T03:25:04.825Z,97830.41
2023-08-22T03:27:32.878Z,97835.66
2023-08-22T03:30:00.899Z,97830.78
2023-08-22T03:32:28.924Z,97829.50
2023-08-22T03:34:56.956Z,97834.91
2023-08-22T03:37:24.966Z,97832.72
2023-08-22T03:39:54.293Z,97827.50
2023-08-22T03:42:22.304Z,97829.84
2023-08-22T03:44:50.303Z,97824.03
2023-08-22T03:47:18.324Z,97829.63
2023-08-22T03:49:46.368Z,97826.34
2023-08-22T03:52:14.669Z,97824.94
2023-08-22T03:54:42.683Z,97825.91
2023-08-22T03:57:12.058Z,97837.31
2023-08-22T03:59:40.063Z,97829.50
2023-08-22T04:02:08.110Z,97829.84
2023-08-22T04:04:36.148Z,97837.22
2023-08-22T04:07:04.132Z,97845.22
2023-08-22T04:09:32.114Z,97850.28
2023-08-22T04:12:01.663Z,97844.69
2023-08-22T04:14:31.028Z,97849.91
2023-08-22T04:16:59.054Z,97851.56
2023-08-22T04:19:27.052Z,97850.38
2023-08-22T04:21:55.030Z,97850.50
2023-08-22T04:24:23.118Z,97854.41
2023-08-22T04:26:52.644Z,97857.13
2023-08-22T04:29:21.886Z,97848.75
2023-08-22T04:31:51.509Z,97848.41
2023-08-22T04:34:19.543Z,97848.03
2023-08-22T04:36:47.580Z,97846.78
2023-08-22T04:39:15.591Z,97850.75
2023-08-22T04:41:44.367Z,97854.69
2023-08-22T04:44:12.402Z,97843.59
2023-08-22T04:46:40.580Z,97843.44
2023-08-22T04:49:10.091Z,97852.25
2023-08-22T04:51:38.086Z,97851.44
2023-08-22T04:54:06.664Z,97851.09
2023-08-22T04:56:34.654Z,97860.53
2023-08-22T04:59:04.998Z,97849.44
2023-08-22T05:01:35.522Z,97841.34
2023-08-22T05:04:03.626Z,97850.97
2023-08-22T05:06:32.936Z,97852.69
2023-08-22T05:09:00.953Z,97854.47
2023-08-22T05:11:28.981Z,97856.19
2023-08-22T05:13:56.984Z,97856.13
2023-08-22T05:16:25.116Z,97844.84
2023-08-22T05:18:53.145Z,97857.81
2023-08-22T05:21:21.133Z,97867.38
2023-08-22T05:23:50.443Z,97862.09
2023-08-22T05:26:18.606Z,97863.00
2023-08-22T05:28:47.335Z,97863.19
2023-08-22T05:31:22.065Z,97867.28
2023-08-22T05:33:50.500Z,97870.72
2023-08-22T05:36:18.862Z,97865.84
2023-08-22T05:38:47.030Z,97864.94
2023-08-22T05:41:17.676Z,97863.03
2023-08-22T05:43:45.755Z,97862.94
2023-08-22T05:46:13.860Z,97867.25
2023-08-22T05:48:41.923Z,97869.50
2023-08-22T05:51:09.903Z,97869.56
2023-08-22T05:53:37.887Z,97869.66
2023-08-22T05:56:06.009Z,97870.53
2023-08-22T05:58:36.078Z,97866.66
2023-08-22T06:01:10.666Z,97868.78
2023-08-22T06:03:39.878Z,97874.53
2023-08-22T06:06:07.973Z,97868.97
2023-08-22T06:08:35.953Z,97862.59
2023-08-22T06:11:04.095Z,97860.66
2023-08-22T06:13:32.065Z,97858.72
2023-08-22T06:16:01.462Z,97869.72
2023-08-22T06:18:29.507Z,97865.94
2023-08-22T06:21:01.082Z,97862.81
2023-08-22T06:23:29.240Z,97858.06
2023-08-22T06:25:57.266Z,97860.16
2023-08-22T06:28:25.262Z,97867.47
2023-08-22T06:30:53.260Z,97868.53
2023-08-22T06:33:22.603Z,97865.00
2023-08-22T06:35:50.597Z,97872.94
2023-08-22T06:38:18.583Z,97868.00
2023-08-22T06:40:46.607Z,97862.00
2023-08-22T06:43:16.585Z,97868.06
2023-08-22T06:45:44.729Z,97864.41
2023-08-22T06:48:13.770Z,97862.47
2023-08-22T06:50:46.005Z,97858.44
2023-08-22T06:53:14.019Z,97864.09
2023-08-22T06:55:42.380Z,97859.66
2023-08-22T06:58:10.456Z,97869.00
2023-08-22T07:00:38.453Z,97862.72
2023-08-22T07:03:08.754Z,97864.53
2023-08-22T07:05:38.207Z,97864.38
2023-08-22T07:08:08.517Z,97868.63
2023-08-22T07:10:36.766Z,97852.84
2023-08-22T07:13:05.234Z,97856.84
2023-08-22T07:15:33.924Z,97852.97
2023-08-22T07:18:02.004Z,97856.22
2023-08-22T07:20:30.097Z,97856.38
2023-08-22T07:22:58.076Z,97850.84
2023-08-22T07:25:27.382Z,97853.63
2023-08-22T07:27:55.964Z,97859.41
2023-08-22T07:30:23.972Z,97861.47
2023-08-22T07:32:52.011Z,97855.44
2023-08-22T07:35:20.236Z,97864.50
2023-08-22T07:37:48.251Z,97864.59
2023-08-22T07:40:17.568Z,97858.81
2023-08-22T07:42:47.007Z,97868.56
2023-08-22T07:45:14.988Z,97875.88
2023-08-22T07:47:43.004Z,97872.97
2023-08-22T07:50:12.139Z,97868.75
2023-08-22T07:52:40.446Z,97869.91
2023-08-22T07:55:09.928Z,97867.66
2023-08-22T07:57:37.917Z,97872.75
2023-08-22T08:00:12.140Z,97869.81
2023-08-22T08:02:40.399Z,97874.00
2023-08-22T08:05:09.843Z,97876.72
2023-08-22T08:07:38.034Z,97874.03
2023-08-22T08:10:07.140Z,97875.16
2023-08-22T08:12:35.156Z,97877.81
2023-08-22T08:15:04.305Z,97875.25
2023-08-22T08:17:34.058Z,97874.69
2023-08-22T08:20:03.945Z,97882.16
2023-08-22T08:22:32.008Z,97876.00
2023-08-22T08:25:00.195Z,97877.16
2023-08-22T08:27:28.206Z,97866.06
2023-08-22T08:29:56.454Z,97868.81
2023-08-22T08:32:25.121Z,97865.88
2023-08-22T08:34:54.450Z,97870.19
2023-08-22T08:37:22.433Z,97871.13
2023-08-22T08:39:50.410Z,97868.41
2023-08-22T08:42:18.482Z,97873.69
2023-08-22T08:44:46.480Z,97861.44
2023-08-22T08:47:15.341Z,97863.63
2023-08-22T08:49:43.859Z,97867.09
2023-08-22T08:52:13.725Z,97860.88
2023-08-22T08:54:43.433Z,97860.00
2023-08-22T08:57:11.582Z,97858.50
2023-08-22T08:59:39.668Z,97868.28
2023-08-22T09:02:08.725Z,97859.94
2023-08-22T09:04:36.742Z,97851.75
2023-08-22T09:07:04.856Z,97855.69
2023-08-22T09:09:37.183Z,97859.38
2023-08-22T09:12:08.881Z,97860.31
2023-08-22T09:14:43.181Z,97854.78
2023-08-22T09:17:11.389Z,97852.09
2023-08-22T09:19:39.404Z,97856.94
2023-08-22T09:22:07.415Z,97846.09
2023-08-22T09:24:38.797Z,97846.09
2023-08-22T09:27:08.383Z,97847.75
2023-08-22T09:29:37.057Z,97843.38
2023-08-22T09:32:07.041Z,97835.34
2023-08-22T09:34:37.123Z,97836.41
2023-08-22T09:37:05.368Z,97842.75
2023-08-22T09:39:34.445Z,97836.53
2023-08-22T09:42:04.625Z,97826.53
2023-08-22T09:44:32.675Z,97828.56
2023-08-22T09:47:00.998Z,97831.84
2023-08-22T09:49:32.282Z,97828.63
2023-08-22T09:52:02.743Z,97827.00
2023-08-22T09:54:31.653Z,97819.59
2023-08-22T09:57:00.637Z,97819.59
2023-08-22T09:59:30.745Z,97819.34
2023-08-22T10:01:59.172Z,97827.13
2023-08-22T10:04:28.115Z,97821.91
2023-08-22T10:06:56.378Z,97814.34
2023-08-22T10:09:25.095Z,97819.00
2023-08-22T10:11:58.653Z,97820.25
2023-08-22T10:14:33.465Z,97813.69
2023-08-22T10:17:02.028Z,97821.53
2023-08-22T10:19:32.662Z,97823.66
2023-08-22T10:22:09.593Z,97822.03
2023-08-22T10:24:38.245Z,97813.34
2023-08-22T10:27:08.279Z,97804.97
2023-08-22T10:29:39.064Z,97807.75
2023-08-22T10:32:23.969Z,97809.47
2023-08-22T10:35:28.765Z,97809.59
2023-08-22T10:37:58.119Z,97808.47
2023-08-22T10:40:35.144Z,97790.28
2023-08-22T10:43:14.824Z,97783.75
2023-08-22T10:45:50.657Z,97796.28
2023-08-22T10:48:21.021Z,97786.78
2023-08-22T10:50:51.520Z,97787.13
2023-08-22T10:53:25.557Z,97791.00
2023-08-22T10:55:55.231Z,97788.72
2023-08-22T10:58:41.948Z,97791.03
2023-08-22T11:01:15.356Z,97795.38
2023-08-22T11:03:44.831Z,97793.69
2023-08-22T11:06:15.032Z,97790.22
2023-08-22T11:08:45.305Z,97777.19
2023-08-22T11:11:18.560Z,97779.66
2023-08-22T11:13:46.778Z,97779.31
2023-08-22T11:16:19.813Z,97777.31
2023-08-22T11:18:50.536Z,97779.44
2023-08-22T11:21:18.888Z,97781.47
2023-08-22T11:23:47.112Z,97783.88
2023-08-22T11:26:15.162Z,97775.34
2023-08-22T11:28:43.658Z,97775.75
2023-08-22T11:31:18.917Z,97780.34
2023-08-22T11:33:49.345Z,97781.88
2023-08-22T11:36:18.741Z,97780.41
2023-08-22T11:38:50.215Z,97778.38
2023-08-22T11:41:22.005Z,97778.88
2023-08-22T11:43:56.075Z,97775.69
2023-08-22T11:46:25.470Z,97784.59
2023-08-22T11:48:54.006Z,97784.56
2023-08-22T11:51:23.359Z,97782.97
2023-08-22T11:53:52.399Z,97784.38
2023-08-22T11:56:21.884Z,97782.94
2023-08-22T11:58:54.314Z,97779.06
2023-08-22T12:01:25.257Z,97777.56
2023-08-22T12:03:58.638Z,97774.13
2023-08-22T12:06:26.766Z,97780.25
2023-08-22T12:09:02.134Z,97774.88
2023-08-22T12:11:31.302Z,97766.75
2023-08-22T12:13:59.365Z,97772.69
2023-08-22T12:16:29.555Z,97768.72
2023-08-22T12:18:59.158Z,97772.91
2023-08-22T12:21:28.617Z,97766.13
2023-08-22T12:23:56.614Z,97770.66
2023-08-22T12:28:52.823Z,97761.66
2023-08-22T12:31:21.058Z,97750.34
2023-08-22T12:33:50.363Z,97757.22
2023-08-22T12:36:18.358Z,97742.16
2023-08-22T12:38:46.693Z,97743.06
2023-08-22T12:41:14.643Z,97752.09
2023-08-22T12:43:42.662Z,97753.19
2023-08-22T12:46:10.763Z,97749.50
2023-08-22T12:48:38.822Z,97745.97
2023-08-22T12:51:08.189Z,97744.44
2023-08-22T12:53:36.158Z,97747.84
2023-08-22T12:56:04.633Z,97746.91
2023-08-22T12:58:33.955Z,97732.28
2023-08-22T13:01:01.933Z,97734.91
2023-08-22T13:03:31.264Z,97724.00
2023-08-22T13:05:59.428Z,97730.72
2023-08-22T13:08:29.114Z,97739.81
2023-08-22T13:10:57.426Z,97731.09
2023-08-22T13:13:25.445Z,97732.72
2023-08-22T13:15:53.531Z,97734.34
2023-08-22T13:18:21.560Z,97726.88
2023-08-22T13:20:49.560Z,97723.38
2023-08-22T13:23:17.611Z,97722.06
2023-08-22T13:25:46.930Z,97715.66
2023-08-22T13:28:14.932Z,97717.25
2023-08-22T13:30:42.945Z,97713.09
2023-08-22T13:33:10.982Z,97710.00
2023-08-22T13:35:38.985Z,97705.75
2023-08-22T13:38:07.046Z,97710.13
2023-08-22T13:40:35.121Z,97705.88
2023-08-22T13:43:05.622Z,97703.81
2023-08-22T13:45:33.750Z,97700.09
2023-08-22T13:48:04.519Z,97696.91
2023-08-22T13:50:33.176Z,97706.50
2023-08-22T13:53:01.252Z,97697.66
2023-08-22T13:55:29.980Z,97689.66
2023-08-22T13:57:58.031Z,97692.63
2023-08-22T14:00:28.088Z,97705.44
2023-08-22T14:02:56.370Z,97703.84
2023-08-22T14:05:24.556Z,97702.13
2023-08-22T14:07:52.632Z,97696.81
2023-08-22T14:10:24.690Z,97704.31
2023-08-22T14:12:53.336Z,97701.81
2023-08-22T14:15:21.348Z,97695.19
2023-08-22T14:17:50.759Z,97694.75
2023-08-22T14:20:19.152Z,97682.47
2023-08-22T14:22:47.486Z,97688.84
2023-08-22T14:25:15.711Z,97686.78
2023-08-22T14:27:44.081Z,97695.25
2023-08-22T14:30:13.480Z,97685.16
2023-08-22T14:32:41.494Z,97686.50
2023-08-22T14:35:11.654Z,97693.09
2023-08-22T14:37:39.667Z,97689.88
2023-08-22T14:40:09.734Z,97693.47
2023-08-22T14:42:37.795Z,97687.50
2023-08-22T14:45:06.866Z,97681.78
2023-08-22T14:47:34.832Z,97685.38
2023-08-22T14:50:03.016Z,97679.84
2023-08-22T14:52:32.462Z,97672.72
2023-08-22T14:55:03.199Z,97675.69
2023-08-22T14:57:31.869Z,97674.63
2023-08-22T15:00:00.217Z,97677.31
2023-08-22T15:02:28.261Z,97678.66
2023-08-22T15:04:56.263Z,97673.81
2023-08-22T15:07:24.353Z,97681.97
2023-08-22T15:09:53.765Z,97673.28
2023-08-22T15:12:21.773Z,97688.44
2023-08-22T15:14:49.975Z,97676.94
2023-08-22T15:17:18.133Z,97683.63
2023-08-22T15:19:46.218Z,97685.78
2023-08-22T15:22:14.526Z,97681.66
2023-08-22T15:24:42.671Z,97681.03
2023-08-22T15:27:12.414Z,97673.72
2023-08-22T15:29:40.573Z,97670.41
2023-08-22T15:32:08.920Z,97682.44
2023-08-22T15:34:36.904Z,97660.44
2023-08-22T15:37:05.715Z,97663.13
2023-08-22T15:39:33.757Z,97662.63
2023-08-22T15:42:01.762Z,97671.53
2023-08-22T15:44:31.158Z,97662.88
2023-08-22T15:46:59.226Z,97664.03
2023-08-22T15:49:27.208Z,97658.66
2023-08-22T15:51:55.251Z,97666.16
2023-08-22T15:54:23.383Z,97665.03
2023-08-22T15:56:51.390Z,97665.44
2023-08-22T15:59:19.420Z,97662.88
2023-08-22T16:01:48.735Z,97658.66
2023-08-22T16:04:16.770Z,97665.94
2023-08-22T16:06:44.797Z,97663.34
2023-08-22T16:09:12.828Z,97664.59
2023-08-22T16:11:40.972Z,97661.81
2023-08-22T16:14:08.928Z,97664.47
2023-08-22T16:16:36.917Z,97659.09
2023-08-22T16:19:06.472Z,97656.31
2023-08-22T16:21:34.515Z,97653.47
2023-08-22T16:24:02.708Z,97660.19
2023-08-22T16:26:30.729Z,97654.84
2023-08-22T16:29:02.195Z,97654.16
2023-08-22T16:31:31.426Z,97648.69
2023-08-22T16:33:59.480Z,97644.91
2023-08-22T16:36:28.845Z,97652.53
2023-08-22T16:38:56.955Z,97654.09
2023-08-22T16:41:25.005Z,97654.81
2023-08-22T16:43:54.683Z,97658.16
2023-08-22T16:46:22.774Z,97661.28
2023-08-22T16:48:50.788Z,97655.09
2023-08-22T16:51:18.787Z,97657.19
2023-08-22T16:53:48.117Z,97667.72
2023-08-22T16:56:16.194Z,97669.00
2023-08-22T16:58:45.798Z,97669.56
2023-08-22T17:01:16.043Z,97670.56
2023-08-22T17:03:44.638Z,97672.19
2023-08-22T17:06:15.147Z,97672.22
2023-08-22T17:09:03.133Z,97688.53
2023-08-22T17:11:31.163Z,97686.94
2023-08-22T17:13:59.161Z,97689.75
2023-08-22T17:16:27.217Z,97687.13
2023-08-22T17:18:55.231Z,97696.63
2023-08-22T17:21:23.290Z,97692.66
2023-08-22T17:23:51.285Z,97693.22
2023-08-22T17:26:20.611Z,97703.03
2023-08-22T17:28:48.589Z,97698.66
2023-08-22T17:31:16.614Z,97695.16
2023-08-22T17:33:45.013Z,97697.13
2023-08-22T17:36:15.028Z,97703.78
2023-08-22T17:38:45.668Z,97697.22
2023-08-22T17:41:13.740Z,97702.25
2023-08-22T17:43:44.562Z,97693.50
2023-08-22T17:46:13.789Z,97696.88
2023-08-22T17:48:41.992Z,97694.00
2023-08-22T17:51:09.960Z,97694.31
2023-08-22T17:53:38.250Z,97698.91
2023-08-22T17:56:06.567Z,97709.19
2023-08-22T17:58:34.589Z,97713.75
2023-08-22T18:01:04.921Z,97709.38
2023-08-22T18:03:33.125Z,97703.56
2023-08-22T18:06:03.590Z,97711.75
2023-08-22T18:08:32.280Z,97699.88
2023-08-22T18:11:00.293Z,97711.91
2023-08-22T18:13:28.674Z,97706.50
2023-08-22T18:16:10.124Z,97714.47
2023-08-22T18:18:40.755Z,97721.69
2023-08-22T18:21:13.699Z,97719.09
2023-08-22T18:23:42.667Z,97716.38
2023-08-22T18:26:12.665Z,97722.38
2023-08-22T18:28:41.323Z,97722.44
2023-08-22T18:31:27.032Z,97725.81
2023-08-22T18:33:56.407Z,97734.41
2023-08-22T18:36:27.188Z,97735.28
2023-08-22T18:38:55.850Z,97737.97
2023-08-22T18:41:23.945Z,97734.94
2023-08-22T18:43:53.680Z,97736.19
2023-08-22T18:46:25.689Z,97727.53
2023-08-22T18:48:53.960Z,97732.44
2023-08-22T18:51:21.928Z,97734.88
2023-08-22T18:53:49.962Z,97735.94
2023-08-22T18:56:18.896Z,97738.81
2023-08-22T18:58:47.429Z,97739.66
2023-08-22T19:01:15.463Z,97740.31
2023-08-22T19:03:44.888Z,97745.19
2023-08-22T19:06:12.923Z,97746.63
2023-08-22T19:08:40.917Z,97744.00
2023-08-22T19:11:09.485Z,97748.28
2023-08-22T19:13:37.435Z,97755.19
2023-08-22T19:16:07.371Z,97739.41
2023-08-22T19:18:35.510Z,97741.88
2023-08-22T19:21:04.980Z,97745.91
2023-08-22T19:23:32.968Z,97749.38
2023-08-22T19:26:02.849Z,97754.44
2023-08-22T19:28:30.870Z,97752.66
2023-08-22T19:31:00.268Z,97741.13
2023-08-22T19:33:31.322Z,97750.88
2023-08-22T19:35:59.414Z,97753.31
2023-08-22T19:38:28.780Z,97755.75
2023-08-22T19:40:59.167Z,97757.34
2023-08-22T19:43:27.359Z,97753.72
2023-08-22T19:45:56.201Z,97751.69
2023-08-22T19:48:24.406Z,97758.78
2023-08-22T19:50:52.487Z,97754.94
2023-08-22T19:53:20.778Z,97753.13
2023-08-22T19:55:50.591Z,97752.94
2023-08-22T19:58:18.579Z,97750.09
2023-08-22T20:00:47.493Z,97757.59
2023-08-22T20:03:15.871Z,97758.78
2023-08-22T20:05:45.284Z,97755.78
2023-08-22T20:08:13.293Z,97750.09
2023-08-22T20:10:41.348Z,97752.53
2023-08-22T20:13:11.494Z,97758.19
2023-08-22T20:15:39.497Z,97754.34
2023-08-22T20:18:07.862Z,97758.34
2023-08-22T20:20:35.901Z,97754.91
2023-08-22T20:23:03.960Z,97760.13
2023-08-22T20:25:35.351Z,97757.28
2023-08-22T20:28:03.462Z,97760.03
2023-08-22T20:30:33.886Z,97757.53
2023-08-22T20:33:02.253Z,97752.56
2023-08-22T20:35:30.291Z,97757.34
2023-08-22T20:37:58.323Z,97751.84
2023-08-22T20:40:26.329Z,97750.41
2023-08-22T20:42:56.741Z,97754.47
2023-08-22T20:45:24.784Z,97760.56
2023-08-22T20:47:54.123Z,97752.72
2023-08-22T20:50:22.183Z,97757.41
2023-08-22T20:52:50.616Z,97755.38
2023-08-22T20:55:18.802Z,97754.38
2023-08-22T20:57:47.196Z,97758.59
2023-08-22T21:00:19.044Z,97753.38
2023-08-22T21:02:47.289Z,97761.44
2023-08-22T21:05:17.906Z,97761.81
2023-08-22T21:07:46.181Z,97765.03
2023-08-22T21:10:14.656Z,97766.13
2023-08-22T21:12:42.695Z,97770.38
2023-08-22T21:15:11.516Z,97760.50
2023-08-22T21:17:39.556Z,97772.06
2023-08-22T21:20:12.484Z,97767.56
2023-08-22T21:22:42.076Z,97770.00
2023-08-22T21:25:11.559Z,97772.06
2023-08-22T21:27:39.541Z,97763.47
2023-08-22T21:30:09.204Z,97770.13
2023-08-22T21:32:37.299Z,97772.56
2023-08-22T21:35:06.194Z,97773.97
2023-08-22T21:37:34.169Z,97789.97
2023-08-22T21:40:03.627Z,97785.91
2023-08-22T21:42:32.106Z,97785.47
2023-08-22T21:45:00.089Z,97782.22
2023-08-22T21:47:28.157Z,97787.03
2023-08-22T21:49:57.955Z,97777.31
2023-08-22T21:52:25.942Z,97787.34
2023-08-22T21:54:53.912Z,97782.06
2023-08-22T21:57:23.213Z,97778.91
2023-08-22T21:59:51.204Z,97793.22
2023-08-22T22:02:19.262Z,97791.81
2023-08-22T22:04:47.267Z,97789.06
2023-08-22T22:07:15.319Z,97792.78
2023-08-22T22:09:43.609Z,97797.03
2023-08-22T22:12:11.743Z,97803.88
2023-08-22T22:14:41.115Z,97799.91
2023-08-22T22:17:09.197Z,97796.28
2023-08-22T22:19:37.188Z,97801.59
2023-08-22T22:22:05.149Z,97794.19
2023-08-22T22:24:33.584Z,97794.00
2023-08-22T22:27:01.721Z,97801.69
2023-08-22T22:29:29.726Z,97800.84
2023-08-22T22:31:59.050Z,97808.88
2023-08-22T22:34:27.050Z,97806.09
2023-08-22T22:36:55.050Z,97796.06
2023-08-22T22:39:23.144Z,97801.50
2023-08-22T22:41:51.122Z,97805.28
2023-08-22T22:44:19.107Z,97803.84
2023-08-22T22:46:47.150Z,97798.97
2023-08-22T22:49:16.543Z,97796.91
2023-08-22T22:51:44.570Z,97800.25
2023-08-22T22:54:12.557Z,97799.66
2023-08-22T22:56:40.531Z,97806.66
2023-08-22T22:59:08.513Z,97805.22
2023-08-22T23:01:36.506Z,97807.81
2023-08-22T23:04:04.587Z,97807.03
2023-08-22T23:06:33.956Z,97813.44
2023-08-22T23:09:01.939Z,97814.44
2023-08-22T23:11:54.944Z,97815.44
2023-08-22T23:14:20.306Z,97813.34
2023-08-22T23:16:48.375Z,97819.50
2023-08-22T23:19:16.402Z,97821.09
2023-08-22T23:21:45.700Z,97812.78
2023-08-22T23:24:13.695Z,97814.59
2023-08-22T23:26:41.739Z,97804.75
2023-08-22T23:29:09.716Z,97802.81
2023-08-22T23:31:37.689Z,97803.81
2023-08-22T23:34:05.691Z,97816.88
2023-08-22T23:36:33.928Z,97806.47
2023-08-22T23:39:05.020Z,97811.72
2023-08-22T23:41:33.032Z,97810.06
2023-08-22T23:44:10.846Z,97808.19
2023-08-22T23:46:39.405Z,97805.84
2023-08-22T23:49:07.412Z,97804.66
2023-08-22T23:51:35.675Z,97804.50
2023-08-22T23:54:06.018Z,97811.53
2023-08-22T23:56:34.007Z,97813.97
2023-08-22T23:59:02.027Z,97803.16
